KESWICK RESERVOIR (KES)

Elevation: 596' · SACRAMENTO R basin · Operator: US Bureau of Reclamation

Provisional data, subject to change.
Query executed Sunday at 23:38:08   clock

Select a sensor type for a plot of data.
Note: Reservoir Flows are daily averages.

Earlier

Date RES ELE    STORAGE    RES CHG    OUTFLOW    INFLOW   
 FEET   AF   AF   CFS   CFS  
03/28/2015 584.94 22470 847 2732 3166
03/29/2015 582.44 20949 -1521 2734 1973
03/30/2015 584.14 21976 1027 2732 3256
03/31/2015 584.02 21902 -74 2732 2701
04/01/2015 584.36 22112 210 3055 3166
04/02/2015 583.76 21744 -368 3253 3069
04/03/2015 582.47 20967 -777 3138 2749
04/04/2015 581.74 20534 -433 3044 2831
04/05/2015 581.36 20311 -223 2962 2854
04/06/2015 581.19 20211 -100 2878 2829
04/07/2015 582.45 20955 744 2745 3122
04/08/2015 584.79 22377 1422 2719 3436
04/09/2015 582.20 20805 -1572 2964 2171
04/10/2015 581.62 20463 -342 2968 2799
04/11/2015 580.44 19777 -686 2969 2627
04/12/2015 577.97 18394 -- 2971 2276
04/13/2015 578.72 18807 413 2968 3179
04/14/2015 578.22 18531 -276 2967 2831
04/15/2015 578.57 18725 194 2967 3068
04/16/2015 578.91 18912 187 3332 3429
04/17/2015 579.63 19316 404 3716 3925
04/18/2015 580.41 19760 444 3690 3918
04/19/2015 580.06 19559 -201 3689 3593
04/20/2015 580.71 19933 374 3689 3882
04/21/2015 580.88 20031 98 4187 4240
04/22/2015 580.60 19870 -161 4689 4612
04/23/2015 578.92 18918 -952 5320 4845
04/24/2015 578.93 18923 5 5868 5875
04/25/2015 577.94 18377 -546 6263 5991
04/26/2015 -- -- -- -- --

Later | Latest

Warning! This data is preliminary and subject to revision.

Show KES Map | Plot KES Data | 1 Month KES Data | Real-Time KES Data | KES Info